Time;durP1;ratioP1;P1;durP2;ratioP2;P2;SDS_P1;SDS_P2;PMS_P1;PMS_P2;Temp;Humidity;BMP_temperature;BMP_pressure;BME280_temperature;BME280_humidity;BME280_pressure;Samples;Min_cycle;Max_cycle;Signal;HPM_P1;HPM_P2
2020/12/27 00:00:23;;;;;;;12.37;6.23;;;;;;;-1.17;72.66;99091.84;120385;1143;65142;-89
2020/12/27 00:03:04;;;;;;;15.35;5.65;;;;;;;-1.18;72.16;99069.16;120197;1144;65095;-86
2020/12/27 00:05:30;;;;;;;10.50;6.03;;;;;;;-1.18;72.99;99074.41;119978;1144;65222;-88
2020/12/27 00:07:56;;;;;;;14.30;5.30;;;;;;;-1.16;73.16;99057.73;120195;1144;65103;-92
2020/12/27 00:10:23;;;;;;;13.23;5.83;;;;;;;-1.10;72.80;99047.09;120194;1143;65114;-88
2020/12/27 00:12:49;;;;;;;14.85;6.10;;;;;;;-1.06;72.04;99045.28;120311;1143;65108;-86
2020/12/27 00:15:16;;;;;;;11.73;5.07;;;;;;;-1.09;72.21;99030.47;120301;1143;65178;-86
2020/12/27 00:17:43;;;;;;;10.00;5.30;;;;;;;-1.07;72.56;99024.36;120021;1144;65088;-87
2020/12/27 00:20:10;;;;;;;10.95;5.50;;;;;;;-1.09;71.92;99025.23;119976;1143;65275;-90
2020/12/27 00:22:37;;;;;;;8.60;4.53;;;;;;;-1.07;72.42;99013.88;120294;1144;65044;-88
2020/12/27 00:25:04;;;;;;;14.53;5.13;;;;;;;-1.08;72.63;99020.88;119995;1143;65021;-88
2020/12/27 00:27:30;;;;;;;9.63;4.43;;;;;;;-1.05;72.61;99014.69;119887;1144;65031;-88
2020/12/27 00:29:56;;;;;;;8.77;5.03;;;;;;;-1.06;73.02;98998.10;120075;1144;65069;-89
2020/12/27 00:32:28;;;;;;;10.13;4.93;;;;;;;-1.07;72.67;98995.53;120083;1144;65011;-90
2020/12/27 00:34:54;;;;;;;12.45;5.80;;;;;;;-1.07;73.15;99006.02;120385;1144;65044;-88
2020/12/27 00:37:21;;;;;;;10.77;4.67;;;;;;;-1.05;73.09;99009.44;119995;1143;65091;-88
2020/12/27 00:39:54;;;;;;;12.47;5.50;;;;;;;-1.05;72.45;99004.20;120046;1144;65096;-86
2020/12/27 00:42:21;;;;;;;11.45;5.45;;;;;;;-1.09;72.41;98999.02;120126;1143;65293;-89
2020/12/27 00:44:48;;;;;;;10.10;5.60;;;;;;;-1.14;72.89;98985.20;119994;1143;65053;-87
2020/12/27 00:47:14;;;;;;;14.60;6.10;;;;;;;-1.18;72.36;98986.17;120010;1144;65169;-87
2020/12/27 00:49:40;;;;;;;9.17;4.80;;;;;;;-1.18;73.04;98978.31;119906;1144;65689;-90
2020/12/27 00:52:07;;;;;;;12.37;4.80;;;;;;;-1.16;73.03;98973.02;120236;1143;65098;-87
2020/12/27 00:54:33;;;;;;;10.40;5.55;;;;;;;-1.16;72.01;98968.64;119920;1143;65162;-88
2020/12/27 00:57:00;;;;;;;12.43;5.97;;;;;;;-1.16;72.03;98959.92;120020;1144;65069;-86
2020/12/27 00:59:27;;;;;;;10.03;4.53;;;;;;;-1.13;72.46;98965.95;120059;1143;65090;-89
2020/12/27 01:01:58;;;;;;;11.80;6.17;;;;;;;-1.11;72.60;98955.42;119968;1144;65114;-91
2020/12/27 01:05:03;;;;;;;9.80;4.83;;;;;;;-1.07;72.87;98941.34;120039;1145;65252;-86
2020/12/27 01:07:30;;;;;;;8.03;5.07;;;;;;;-1.06;72.26;98937.82;119789;1147;65185;-88
2020/12/27 01:10:17;;;;;;;12.30;4.30;;;;;;;-1.05;72.15;98928.20;120023;1147;65063;-90
2020/12/27 01:12:46;;;;;;;9.93;4.93;;;;;;;-1.04;73.04;98919.42;119793;1147;65244;-88
2020/12/27 01:15:13;;;;;;;7.87;4.57;;;;;;;-1.05;72.63;98912.47;120111;1145;65308;-86
2020/12/27 01:17:58;;;;;;;10.55;5.05;;;;;;;-1.08;71.85;98918.67;119432;1147;65296;-89
2020/12/27 01:20:26;;;;;;;8.33;4.40;;;;;;;-1.11;72.45;98909.11;119598;1146;65265;-87
2020/12/27 01:22:52;;;;;;;10.05;5.05;;;;;;;-1.10;72.98;98904.72;119660;1147;65005;-88
2020/12/27 01:25:23;;;;;;;10.43;5.63;;;;;;;-1.14;72.36;98909.21;119766;1146;65127;-88
2020/12/27 01:27:50;;;;;;;10.27;4.93;;;;;;;-1.17;72.23;98908.42;119751;1148;65308;-90
2020/12/27 01:30:16;;;;;;;10.60;5.10;;;;;;;-1.23;72.41;98914.68;120014;1146;65101;-88
2020/12/27 01:32:47;;;;;;;12.37;5.33;;;;;;;-1.29;72.92;98906.13;119869;1147;65076;-87
2020/12/27 01:35:14;;;;;;;16.00;6.00;;;;;;;-1.34;72.02;98905.38;120114;1146;65161;-89
2020/12/27 01:37:41;;;;;;;10.43;5.07;;;;;;;-1.38;72.88;98908.09;120000;1144;65178;-90
2020/12/27 01:40:08;;;;;;;9.93;4.60;;;;;;;-1.43;72.90;98904.73;120065;1144;65450;-87
2020/12/27 01:42:35;;;;;;;13.00;5.40;;;;;;;-1.45;72.88;98909.16;120071;1144;65134;-88
2020/12/27 01:45:03;;;;;;;14.27;4.97;;;;;;;-1.42;73.26;98902.97;119904;1144;65183;-90
2020/12/27 01:47:51;;;;;;;7.73;4.90;;;;;;;-1.40;72.35;98896.81;120319;1143;65089;-90
2020/12/27 01:50:19;;;;;;;9.30;4.67;;;;;;;-1.40;72.16;98896.81;120140;1144;65178;-89
2020/12/27 01:52:46;;;;;;;12.03;5.17;;;;;;;-1.39;73.05;98895.05;120322;1144;64973;-87
2020/12/27 01:55:18;;;;;;;9.17;4.87;;;;;;;-1.41;72.48;98895.06;119999;1143;65079;-90
2020/12/27 01:57:52;;;;;;;9.30;5.57;;;;;;;-1.38;72.55;98884.52;120012;1143;65082;-88
2020/12/27 02:00:20;;;;;;;10.87;5.73;;;;;;;-1.38;72.19;98881.05;120135;1143;65108;-89
2020/12/27 02:03:04;;;;;;;8.63;5.23;;;;;;;-1.42;73.11;98879.39;120378;1144;65133;-88
2020/12/27 02:05:30;;;;;;;10.17;5.33;;;;;;;-1.44;73.19;98876.83;119946;1144;65076;-87
2020/12/27 02:07:58;;;;;;;11.80;4.80;;;;;;;-1.43;72.19;98873.30;120029;1143;65098;-89
2020/12/27 02:10:36;;;;;;;11.97;5.50;;;;;;;-1.46;72.91;98860.30;119906;1144;65184;-88
2020/12/27 02:13:03;;;;;;;9.70;5.13;;;;;;;-1.46;72.98;98854.20;119985;1144;65189;-88
2020/12/27 02:15:30;;;;;;;7.80;4.40;;;;;;;-1.43;72.35;98854.97;120153;1143;65079;-89
2020/12/27 02:18:17;;;;;;;7.87;4.80;;;;;;;-1.40;72.34;98839.19;120076;1144;65090;-88
2020/12/27 02:20:44;;;;;;;8.57;4.53;;;;;;;-1.35;72.00;98828.56;120161;1144;65092;-88
2020/12/27 02:23:17;;;;;;;10.17;4.60;;;;;;;-1.33;73.18;98818.06;119982;1144;65088;-87
2020/12/27 02:25:47;;;;;;;13.40;4.83;;;;;;;-1.32;72.21;98811.91;119946;1143;65085;-89
2020/12/27 02:28:28;;;;;;;9.13;5.07;;;;;;;-1.34;73.02;98805.84;120301;1143;65174;-89
2020/12/27 02:30:56;;;;;;;14.73;7.10;;;;;;;-1.37;72.75;98791.94;119989;1144;65111;-88
2020/12/27 02:33:22;;;;;;;12.53;4.80;;;;;;;-1.37;72.57;98793.70;120260;1143;65072;-92
2020/12/27 02:35:49;;;;;;;10.77;4.70;;;;;;;-1.41;72.84;98792.05;120072;1142;65088;-87
2020/12/27 02:38:20;;;;;;;10.50;5.13;;;;;;;-1.44;73.04;98786.92;120014;1144;65085;-87
2020/12/27 02:40:46;;;;;;;12.10;4.80;;;;;;;-1.46;72.94;98776.49;119980;1144;65181;-89
2020/12/27 02:43:28;;;;;;;10.83;5.07;;;;;;;-1.45;72.84;98778.20;120177;1144;65097;-90
2020/12/27 02:45:55;;;;;;;14.93;4.60;;;;;;;-1.45;72.67;98778.20;120041;1144;65031;-88
2020/12/27 02:48:44;;;;;;;11.13;5.00;;;;;;;-1.46;72.54;98776.49;120227;1143;65236;-91
2020/12/27 02:51:19;;;;;;;6.60;4.53;;;;;;;-1.46;72.12;98771.25;119977;1143;65021;-89
2020/12/27 02:53:48;;;;;;;10.40;5.20;;;;;;;-1.46;72.12;98763.39;120063;1142;65095;-90
2020/12/27 02:56:19;;;;;;;10.07;5.13;;;;;;;-1.45;72.65;98759.02;120154;1144;65152;-89
2020/12/27 02:58:47;;;;;;;12.30;5.70;;;;;;;-1.45;72.56;98762.48;120170;1144;65169;-88
2020/12/27 03:01:15;;;;;;;11.25;5.00;;;;;;;-1.44;72.70;98764.20;120003;1143;65575;-88
2020/12/27 03:03:50;;;;;;;12.00;4.90;;;;;;;-1.43;72.64;98759.82;120270;1143;65031;-87
2020/12/27 03:06:24;;;;;;;10.65;5.10;;;;;;;-1.44;71.47;98753.72;120109;1143;65260;-89
2020/12/27 03:08:55;;;;;;;9.47;4.40;;;;;;;-1.47;71.66;98732.84;119986;1144;65099;-89
2020/12/27 03:11:40;;;;;;;9.38;4.50;;;;;;;-1.48;71.83;98727.66;120113;1144;65165;-88
2020/12/27 03:14:09;;;;;;;9.20;4.20;;;;;;;-1.50;72.55;98721.62;119972;1144;65105;-90
2020/12/27 03:16:39;;;;;;;7.80;4.10;;;;;;;-1.51;72.76;98705.05;119971;1144;65229;-91
2020/12/27 03:19:37;;;;;;;13.20;5.17;;;;;;;-1.52;71.66;98708.58;119877;1144;65255;-87
2020/12/27 03:22:21;;;;;;;8.85;4.05;;;;;;;-1.55;72.81;98702.55;120028;1143;65060;-87
2020/12/27 03:25:13;;;;;;;7.03;3.70;;;;;;;-1.55;72.53;98695.55;120288;1143;65101;-90
2020/12/27 03:27:40;;;;;;;6.60;3.67;;;;;;;-1.54;71.98;98702.50;119946;1143;65121;-89
2020/12/27 03:30:07;;;;;;;9.27;4.20;;;;;;;-1.52;71.54;98695.48;119942;1142;65130;-88
2020/12/27 03:32:36;;;;;;;5.35;3.60;;;;;;;-1.51;72.40;98694.57;119896;1143;65180;-90
2020/12/27 03:35:03;;;;;;;7.37;4.30;;;;;;;-1.49;71.92;98686.66;119896;1143;65147;-89
2020/12/27 03:37:32;;;;;;;9.00;3.55;;;;;;;-1.47;71.72;98684.84;119795;1144;65082;-92
2020/12/27 03:40:17;;;;;;;6.73;3.90;;;;;;;-1.45;72.29;98683.06;119912;1144;65098;-88
2020/12/27 03:42:55;;;;;;;9.97;3.50;;;;;;;-1.44;71.57;98675.16;119912;1144;65206;-88
2020/12/27 03:45:22;;;;;;;7.43;3.57;;;;;;;-1.42;72.04;98670.72;119891;1144;65083;-91
2020/12/27 03:48:05;;;;;;;8.57;3.80;;;;;;;-1.38;72.33;98669.73;119946;1144;64970;-88
2020/12/27 03:50:48;;;;;;;8.17;4.23;;;;;;;-1.36;71.39;98661.82;119928;1144;65117;-89
2020/12/27 03:53:16;;;;;;;10.20;3.87;;;;;;;-1.38;72.14;98664.49;119916;1144;65092;-88
2020/12/27 03:55:55;;;;;;;9.37;3.47;;;;;;;-1.37;71.85;98666.20;119939;1144;65018;-89
2020/12/27 03:58:43;;;;;;;11.50;3.43;;;;;;;-1.37;70.77;98645.25;119960;1144;65108;-90
2020/12/27 04:01:27;;;;;;;11.07;3.43;;;;;;;-1.33;71.61;98646.03;119893;1144;65161;-90
2020/12/27 04:03:54;;;;;;;11.13;2.73;;;;;;;-1.31;71.81;98641.59;119992;1143;65018;-89
2020/12/27 04:06:21;;;;;;;8.23;2.53;;;;;;;-1.28;71.06;98643.24;119882;1144;65207;-91
2020/12/27 04:08:52;;;;;;;5.07;2.70;;;;;;;-1.26;71.88;98641.45;119899;1143;65095;-87
2020/12/27 04:11:19;;;;;;;7.43;2.93;;;;;;;-1.28;70.81;98636.23;119931;1144;65178;-90
2020/12/27 04:13:47;;;;;;;6.77;2.90;;;;;;;-1.26;71.91;98636.22;119910;1143;65073;-89
2020/12/27 04:16:15;;;;;;;4.53;2.83;;;;;;;-1.26;71.79;98641.45;119938;1144;65035;-89
2020/12/27 04:18:42;;;;;;;5.93;2.70;;;;;;;-1.28;71.73;98636.23;119947;1144;65185;-89
2020/12/27 04:21:28;;;;;;;6.47;3.47;;;;;;;-1.33;70.95;98632.93;119927;1144;65140;-91
2020/12/27 04:24:16;;;;;;;5.80;3.20;;;;;;;-1.35;70.72;98637.34;119872;1145;65355;-92
2020/12/27 04:26:42;;;;;;;6.73;2.50;;;;;;;-1.37;70.89;98637.39;119915;1144;65076;-88
2020/12/27 04:29:10;;;;;;;6.55;2.70;;;;;;;-1.35;71.29;98632.09;120345;1144;65095;-93
2020/12/27 04:31:37;;;;;;;3.23;2.43;;;;;;;-1.33;71.61;98627.69;119941;1143;65358;-88
2020/12/27 04:34:14;;;;;;;7.47;3.63;;;;;;;-1.28;71.70;98611.80;120192;1143;65086;-88
2020/12/27 04:36:42;;;;;;;7.83;2.50;;;;;;;-1.24;71.11;98610.81;120130;1144;65184;-89
2020/12/27 04:39:11;;;;;;;6.80;3.23;;;;;;;-1.20;70.46;98604.58;120017;1144;65062;-86
2020/12/27 04:41:44;;;;;;;5.90;2.47;;;;;;;-1.21;71.33;98597.60;120035;1144;65118;-92
2020/12/27 04:44:15;;;;;;;4.60;2.90;;;;;;;-1.19;71.49;98601.91;119925;1144;65060;-90
2020/12/27 04:46:42;;;;;;;4.57;2.40;;;;;;;-1.18;70.77;98598.37;120283;1144;65168;-91
2020/12/27 04:49:14;;;;;;;6.30;2.67;;;;;;;-1.19;70.60;98585.33;120012;1143;65089;-87
2020/12/27 04:51:47;;;;;;;4.67;2.40;;;;;;;-1.20;70.44;98586.24;120207;1144;65015;-87
2020/12/27 04:54:33;;;;;;;8.10;3.20;;;;;;;-1.23;71.24;98574.08;119940;1144;65092;-91
2020/12/27 04:57:15;;;;;;;5.37;2.83;;;;;;;-1.23;70.87;98568.84;119994;1144;65505;-88
2020/12/27 04:59:45;;;;;;;6.83;2.67;;;;;;;-1.20;70.67;98566.14;119929;1143;65181;-90
2020/12/27 05:02:18;;;;;;;6.07;2.50;;;;;;;-1.14;70.92;98559.84;120082;1144;65023;-91
2020/12/27 05:04:52;;;;;;;5.00;2.37;;;;;;;-1.12;70.89;98563.26;120155;1143;65089;-88
2020/12/27 05:07:25;;;;;;;6.83;2.93;;;;;;;-1.12;70.59;98565.88;120185;1142;65089;-89
2020/12/27 05:10:12;;;;;;;4.63;2.40;;;;;;;-1.12;70.72;98565.88;120097;1144;65102;-93
2020/12/27 05:12:43;;;;;;;4.60;2.60;;;;;;;-1.12;70.74;98560.64;119923;1144;65021;-88
2020/12/27 05:15:09;;;;;;;5.20;2.50;;;;;;;-1.11;70.65;98564.97;120171;1143;65078;-92
2020/12/27 05:17:38;;;;;;;4.63;2.53;;;;;;;-1.08;70.77;98554.41;119989;1144;65179;-92
2020/12/27 05:20:12;;;;;;;5.70;2.35;;;;;;;-1.05;70.83;98561.30;119960;1143;65089;-87
2020/12/27 05:22:40;;;;;;;4.30;2.60;;;;;;;-1.06;69.98;98559.59;120110;1143;65279;-87
2020/12/27 05:25:11;;;;;;;7.90;2.35;;;;;;;-1.04;69.53;98563.86;120055;1144;65225;-89
2020/12/27 05:28:17;;;;;;;4.63;2.43;;;;;;;-0.99;69.94;98561.95;120068;1147;65270;-87
2020/12/27 05:31:19;;;;;;;5.30;2.30;;;;;;;-0.99;69.35;98555.84;119455;1150;65366;-87
2020/12/27 05:34:18;;;;;;;4.03;2.20;;;;;;;-1.02;69.98;98550.69;119909;1145;65133;-91
2020/12/27 05:37:06;;;;;;;4.43;2.53;;;;;;;-1.02;70.45;98551.55;119841;1145;65340;-88
2020/12/27 05:39:53;;;;;;;6.60;2.67;;;;;;;-1.00;69.39;98541.03;119979;1147;65098;-89
2020/12/27 05:42:47;;;;;;;4.37;2.23;;;;;;;-0.97;70.31;98528.67;119970;1146;65424;-88
2020/12/27 05:45:19;;;;;;;9.63;3.10;;;;;;;-0.97;69.85;98520.80;119844;1147;65085;-87
2020/12/27 05:47:46;;;;;;;7.80;2.17;;;;;;;-0.95;69.33;98515.53;120046;1145;65044;-90
2020/12/27 05:50:18;;;;;;;9.80;2.80;;;;;;;-0.95;68.43;98505.91;119910;1147;65281;-86
2020/12/27 05:52:47;;;;;;;3.15;2.10;;;;;;;-0.90;68.96;98500.48;120108;1147;65116;-92
2020/12/27 05:55:19;;;;;;;8.53;3.53;;;;;;;-0.87;68.95;98503.86;119894;1147;65073;-89
2020/12/27 05:57:54;;;;;;;4.43;2.53;;;;;;;-0.84;69.21;98506.36;119756;1146;65103;-87
2020/12/27 06:00:24;;;;;;;6.17;2.03;;;;;;;-0.82;68.38;98488.84;120126;1144;64988;-88
2020/12/27 06:02:59;;;;;;;7.17;2.60;;;;;;;-0.80;68.90;98508.89;119966;1143;65216;-88
2020/12/27 06:06:02;;;;;;;11.83;2.77;;;;;;;-0.82;68.95;98501.94;120341;1144;65066;-89
2020/12/27 06:08:51;;;;;;;8.03;2.53;;;;;;;-0.82;68.33;98501.94;119955;1144;65088;-91
2020/12/27 06:11:35;;;;;;;11.93;2.40;;;;;;;-0.79;69.11;98502.73;120244;1143;65082;-89
2020/12/27 06:14:16;;;;;;;5.63;2.40;;;;;;;-0.78;68.60;98496.58;120211;1144;65191;-89
2020/12/27 06:17:14;;;;;;;8.40;2.27;;;;;;;-0.80;68.55;98501.88;119824;1144;65229;-86
2020/12/27 06:20:07;;;;;;;7.27;2.20;;;;;;;-0.86;68.99;98499.47;120190;1144;65092;-91
2020/12/27 06:22:41;;;;;;;5.65;1.90;;;;;;;-0.86;68.55;98502.95;119949;1144;65085;-87
2020/12/27 06:25:22;;;;;;;6.15;2.05;;;;;;;-0.87;69.03;98498.63;119963;1143;65092;-90
2020/12/27 06:27:54;;;;;;;5.43;2.10;;;;;;;-0.90;68.42;98498.71;120231;1144;64999;-92
2020/12/27 06:30:33;;;;;;;9.67;2.57;;;;;;;-0.88;68.19;98496.91;120029;1144;65169;-89
2020/12/27 06:33:26;;;;;;;7.37;2.20;;;;;;;-0.87;68.28;98487.28;120575;1142;65089;-90
2020/12/27 06:35:56;;;;;;;5.50;2.05;;;;;;;-0.88;68.70;98491.67;120036;1144;65079;-88
2020/12/27 06:38:25;;;;;;;10.10;2.43;;;;;;;-0.89;68.63;98489.08;119976;1144;65278;-90
2020/12/27 06:41:08;;;;;;;7.63;2.40;;;;;;;-0.90;68.17;98489.99;120147;1144;65117;-88
2020/12/27 06:44:40;;;;;;;9.03;3.43;;;;;;;-0.90;69.19;98480.36;119836;1146;65490;-90
2020/12/27 06:47:09;;;;;;;6.73;2.97;;;;;;;-0.96;68.27;98485.81;120216;1144;65120;-91
2020/12/27 06:49:45;;;;;;;8.13;2.23;;;;;;;-1.00;68.59;98484.23;119900;1144;65117;-88
2020/12/27 06:52:25;;;;;;;4.70;1.87;;;;;;;-0.97;68.80;98485.88;120008;1143;65123;-88
2020/12/27 06:55:10;;;;;;;4.47;2.03;;;;;;;-0.98;67.86;98471.06;120595;1143;65069;-86
2020/12/27 06:57:55;;;;;;;4.33;1.75;;;;;;;-0.97;68.30;98460.52;119931;1144;65149;-86
2020/12/27 07:00:31;;;;;;;7.50;2.37;;;;;;;-0.96;68.38;98461.37;119925;1144;65126;-87
2020/12/27 07:03:08;;;;;;;7.03;2.40;;;;;;;-0.97;68.76;98459.67;120015;1143;65088;-86
2020/12/27 07:05:37;;;;;;;6.35;2.50;;;;;;;-0.97;67.82;98459.67;120114;1144;65135;-88
2020/12/27 07:08:06;;;;;;;5.90;2.40;;;;;;;-0.95;68.35;98450.86;119970;1144;65124;-87
2020/12/27 07:10:34;;;;;;;5.83;2.10;;;;;;;-0.92;68.53;98448.12;119995;1144;65244;-89
2020/12/27 07:13:08;;;;;;;5.43;1.80;;;;;;;-0.90;68.05;98446.28;120147;1143;65171;-86
2020/12/27 07:15:44;;;;;;;5.67;2.50;;;;;;;-0.88;67.89;98447.11;120181;1143;65088;-89
2020/12/27 07:18:11;;;;;;;7.60;2.93;;;;;;;-0.85;68.49;98443.51;120060;1144;65107;-90
2020/12/27 07:20:43;;;;;;;5.90;2.40;;;;;;;-0.83;67.34;98436.44;119921;1143;65095;-87
2020/12/27 07:23:12;;;;;;;7.20;2.20;;;;;;;-0.79;67.87;98430.19;120404;1143;65193;-92
2020/12/27 07:25:41;;;;;;;7.13;2.00;;;;;;;-0.76;67.66;98434.45;119957;1143;65104;-87
2020/12/27 07:28:08;;;;;;;4.55;2.50;;;;;;;-0.73;67.43;98416.00;119952;1143;65188;-89
2020/12/27 07:30:36;;;;;;;4.90;2.17;;;;;;;-0.73;67.63;98408.13;120174;1144;65091;-93
2020/12/27 07:33:10;;;;;;;9.10;2.50;;;;;;;-0.72;67.32;98402.83;119993;1143;65095;-89
2020/12/27 07:35:37;;;;;;;4.53;2.30;;;;;;;-0.68;67.84;98404.44;120330;1144;65184;-89
2020/12/27 07:38:06;;;;;;;7.67;2.10;;;;;;;-0.63;67.88;98407.74;120019;1144;65057;-89
2020/12/27 07:40:35;;;;;;;7.33;2.83;;;;;;;-0.62;67.60;98385.84;120357;1144;65066;-88
2020/12/27 07:43:08;;;;;;;8.10;2.90;;;;;;;-0.61;67.14;98378.83;120023;1144;65088;-88
2020/12/27 07:45:36;;;;;;;5.93;2.70;;;;;;;-0.63;67.00;98378.05;120040;1143;65086;-90
2020/12/27 07:48:03;;;;;;;14.75;3.65;;;;;;;-0.62;68.24;98370.11;120169;1144;65092;-88
2020/12/27 07:50:30;;;;;;;8.73;3.50;;;;;;;-0.63;67.25;98364.94;119994;1144;65108;-93
2020/12/27 07:52:59;;;;;;;10.27;3.47;;;;;;;-0.62;67.34;98357.00;119944;1144;65143;-90
2020/12/27 07:55:39;;;;;;;8.30;3.70;;;;;;;-0.61;67.48;98342.13;120171;1142;65143;-91
2020/12/27 07:58:07;;;;;;;7.90;4.00;;;;;;;-0.61;68.40;98337.73;120228;1144;65024;-87
2020/12/27 08:00:36;;;;;;;11.87;4.13;;;;;;;-0.59;67.49;98329.80;119979;1143;65063;-88
2020/12/27 08:03:07;;;;;;;15.50;5.83;;;;;;;-0.58;68.06;98326.25;120220;1143;65484;-90
2020/12/27 08:05:35;;;;;;;14.07;4.97;;;;;;;-0.55;67.94;98318.28;119889;1144;65076;-88
2020/12/27 08:08:12;;;;;;;12.43;5.17;;;;;;;-0.52;67.89;98320.77;120059;1144;65405;-89
2020/12/27 08:10:40;;;;;;;12.30;5.27;;;;;;;-0.48;67.56;98318.89;120123;1144;64984;-91
2020/12/27 08:13:07;;;;;;;14.57;4.93;;;;;;;-0.44;67.88;98300.36;120196;1143;65063;-88
2020/12/27 08:15:41;;;;;;;12.27;5.10;;;;;;;-0.39;68.19;98306.25;120280;1143;65005;-91
2020/12/27 08:18:10;;;;;;;9.20;4.47;;;;;;;-0.34;67.00;98311.33;120175;1144;65155;-87
2020/12/27 08:20:50;;;;;;;13.73;5.13;;;;;;;-0.33;67.14;98295.52;119980;1143;65095;-90
2020/12/27 08:23:18;;;;;;;12.10;5.50;;;;;;;-0.30;67.35;98294.55;120514;1143;65182;-86
2020/12/27 08:25:55;;;;;;;11.70;5.43;;;;;;;-0.25;67.60;98299.59;119897;1143;65184;-88
2020/12/27 08:28:21;;;;;;;9.35;3.85;;;;;;;-0.21;67.26;98299.41;120166;1143;65152;-90
2020/12/27 08:30:48;;;;;;;12.50;5.65;;;;;;;-0.18;67.36;98286.19;119916;1144;65121;-88
2020/12/27 08:33:17;;;;;;;14.83;6.80;;;;;;;-0.14;67.83;98284.27;120038;1143;65018;-88
2020/12/27 08:35:49;;;;;;;14.50;5.90;;;;;;;-0.11;67.49;98285.02;120395;1144;65096;-88
2020/12/27 08:38:24;;;;;;;16.13;6.23;;;;;;;-0.07;67.01;98281.33;120132;1144;65108;-91
2020/12/27 08:41:23;;;;;;;16.47;7.40;;;;;;;-0.01;67.16;98270.57;119885;1143;65156;-90
2020/12/27 08:44:09;;;;;;;15.03;5.83;;;;;;;0.09;67.69;98268.42;120065;1144;65102;-89
2020/12/27 08:46:40;;;;;;;12.97;5.03;;;;;;;0.17;67.34;98268.94;120422;1143;65100;-87
2020/12/27 08:49:28;;;;;;;12.47;4.13;;;;;;;0.22;66.69;98261.73;120211;1144;65092;-86
2020/12/27 08:52:04;;;;;;;13.00;4.57;;;;;;;0.25;66.92;98258.11;119950;1143;65165;-87
2020/12/27 08:54:33;;;;;;;8.85;4.30;;;;;;;0.30;66.77;98257.92;120049;1144;65158;-89
2020/12/27 08:57:04;;;;;;;10.25;4.35;;;;;;;0.32;65.48;98246.44;120029;1144;65092;-88
2020/12/27 08:59:30;;;;;;;8.00;4.43;;;;;;;0.35;65.16;98258.58;119988;1143;65072;-92
2020/12/27 09:01:56;;;;;;;20.83;4.40;;;;;;;0.37;65.42;98268.08;120006;1144;65188;-91
2020/12/27 09:04:23;;;;;;;12.23;5.37;;;;;;;0.42;65.60;98274.00;119828;1144;65126;-91
2020/12/27 09:06:55;;;;;;;19.17;7.33;;;;;;;0.43;64.83;98273.06;119949;1144;65033;-88
2020/12/27 09:09:21;;;;;;;23.13;10.13;;;;;;;0.47;65.59;98272.03;120322;1144;65148;-87
2020/12/27 09:11:48;;;;;;;11.80;6.20;;;;;;;0.52;64.64;98259.55;120094;1143;65069;-86
2020/12/27 09:14:35;;;;;;;12.70;5.20;;;;;;;0.60;65.68;98261.83;119896;1143;64951;-86
2020/12/27 09:17:04;;;;;;;10.70;3.90;;;;;;;0.67;64.98;98260.63;119889;1143;65091;-88
2020/12/27 09:19:34;;;;;;;11.25;4.20;;;;;;;0.73;64.91;98262.98;119861;1144;65095;-85
2020/12/27 09:22:04;;;;;;;6.50;3.40;;;;;;;0.81;65.07;98260.85;120000;1144;65089;-87
2020/12/27 09:24:30;;;;;;;9.10;4.10;;;;;;;0.91;63.62;98269.19;120052;1143;65089;-86
2020/12/27 09:27:17;;;;;;;12.30;5.47;;;;;;;0.98;64.61;98267.98;119957;1143;65127;-90
2020/12/27 09:29:59;;;;;;;9.80;4.80;;;;;;;1.04;64.61;98251.08;119970;1143;65166;-91
2020/12/27 09:32:32;;;;;;;10.43;4.57;;;;;;;1.10;64.64;98245.53;119916;1144;65098;-88
2020/12/27 09:34:59;;;;;;;13.80;5.33;;;;;;;1.13;64.64;98218.23;119927;1144;65009;-86
2020/12/27 09:37:32;;;;;;;10.90;5.07;;;;;;;1.16;63.14;98213.69;119821;1143;65070;-85
2020/12/27 09:40:00;;;;;;;11.40;4.43;;;;;;;1.20;64.29;98209.97;119802;1143;65086;-85
2020/12/27 09:42:28;;;;;;;7.97;4.43;;;;;;;1.31;64.99;98205.05;120174;1143;65140;-88
2020/12/27 09:44:56;;;;;;;10.47;4.33;;;;;;;1.42;64.42;98198.42;119865;1144;65534;-88
2020/12/27 09:47:28;;;;;;;12.30;5.27;;;;;;;1.49;64.18;98186.67;120120;1144;65102;-88
2020/12/27 09:50:08;;;;;;;23.00;6.07;;;;;;;1.54;64.33;98192.56;119901;1144;65184;-87
2020/12/27 09:52:45;;;;;;;16.43;6.57;;;;;;;1.63;65.02;98190.31;119779;1144;65089;-88
2020/12/27 09:55:13;;;;;;;17.20;7.40;;;;;;;1.75;64.74;98191.48;120367;1144;65194;-88
2020/12/27 09:57:43;;;;;;;16.20;6.67;;;;;;;1.85;64.35;98183.99;120721;1143;65581;-88
2020/12/27 10:00:10;;;;;;;20.80;8.30;;;;;;;1.95;64.59;98172.05;120009;1142;65089;-87
2020/12/27 10:02:36;;;;;;;19.20;6.73;;;;;;;2.08;63.96;98166.99;119998;1144;65149;-85
2020/12/27 10:05:04;;;;;;;21.33;8.10;;;;;;;2.18;63.41;98147.16;120494;1143;65167;-90
2020/12/27 10:07:30;;;;;;;16.57;7.70;;;;;;;2.25;62.89;98150.31;119894;1143;65289;-92
2020/12/27 10:09:57;;;;;;;19.00;9.10;;;;;;;2.29;63.67;98136.03;120171;1144;65082;-86
2020/12/27 10:12:24;;;;;;;23.07;9.60;;;;;;;2.30;63.73;98138.61;120377;1144;65101;-85
2020/12/27 10:14:51;;;;;;;13.87;6.43;;;;;;;2.34;64.00;98132.22;119989;1144;65019;-88
2020/12/27 10:17:17;;;;;;;14.77;5.33;;;;;;;2.40;62.80;98109.97;119925;1143;65089;-86
2020/12/27 10:19:44;;;;;;;12.70;5.75;;;;;;;2.49;63.41;98100.73;120523;1144;65175;-89
2020/12/27 10:22:11;;;;;;;18.53;7.87;;;;;;;2.57;63.43;98090.61;119977;1144;65121;-85
2020/12/27 10:24:38;;;;;;;10.10;5.20;;;;;;;2.63;63.59;98077.94;120274;1144;65028;-90
2020/12/27 10:27:06;;;;;;;11.67;4.83;;;;;;;2.69;63.74;98079.39;120178;1144;65088;-92
2020/12/27 10:29:34;;;;;;;15.23;7.13;;;;;;;2.72;63.44;98068.66;119942;1144;65072;-87
2020/12/27 10:32:04;;;;;;;21.50;7.93;;;;;;;2.79;64.08;98070.02;120267;1144;65593;-89
2020/12/27 10:34:31;;;;;;;18.30;9.00;;;;;;;2.92;63.93;98057.83;120033;1144;65069;-90
2020/12/27 10:36:59;;;;;;;31.33;10.03;;;;;;;3.05;64.30;98054.48;120036;1143;65066;-90
2020/12/27 10:39:27;;;;;;;18.90;9.50;;;;;;;3.16;64.50;98045.02;119980;1144;65108;-93
2020/12/27 10:41:55;;;;;;;12.00;6.30;;;;;;;3.30;64.88;98038.09;119920;1144;65066;-90
2020/12/27 10:44:24;;;;;;;13.60;7.35;;;;;;;3.39;64.77;98027.85;119883;1144;65353;-92
2020/12/27 10:46:51;;;;;;;16.23;7.53;;;;;;;3.49;65.32;98020.22;120160;1144;65054;-89
2020/12/27 10:49:22;;;;;;;16.53;6.20;;;;;;;3.62;65.26;98007.98;119999;1144;65143;-88
2020/12/27 10:51:50;;;;;;;15.73;5.73;;;;;;;3.71;64.65;97983.67;119977;1144;65621;-91
2020/12/27 10:54:16;;;;;;;8.13;4.43;;;;;;;3.77;64.93;97991.22;120129;1144;65149;-89
2020/12/27 10:56:44;;;;;;;12.87;6.60;;;;;;;3.78;64.58;97992.91;120028;1144;65155;-90
2020/12/27 10:59:11;;;;;;;12.80;5.67;;;;;;;3.81;64.99;97973.37;121292;1144;65181;-91
2020/12/27 11:01:46;;;;;;;11.73;4.80;;;;;;;3.86;64.36;97976.58;120433;1144;64979;-90
2020/12/27 11:04:14;;;;;;;8.75;4.22;;;;;;;3.93;63.99;97959.41;120321;1144;65059;-91
2020/12/27 11:06:41;;;;;;;10.83;5.23;;;;;;;3.96;64.64;97956.59;120829;1144;65165;-90
2020/12/27 11:09:08;;;;;;;10.87;5.17;;;;;;;4.05;64.14;97942.78;120019;1143;65104;-91
2020/12/27 11:11:37;;;;;;;11.63;4.80;;;;;;;4.12;64.06;97937.11;120437;1144;65079;-89
2020/12/27 11:14:05;;;;;;;14.07;5.63;;;;;;;4.11;64.10;97930.14;120064;1143;65084;-89
2020/12/27 11:16:31;;;;;;;12.87;4.70;;;;;;;4.11;63.64;97927.50;119981;1143;65066;-92
2020/12/27 11:18:59;;;;;;;10.80;5.40;;;;;;;4.14;64.44;97924.67;120068;1144;65189;-91
2020/12/27 11:21:27;;;;;;;10.17;4.93;;;;;;;4.12;63.27;97905.41;120043;1144;65246;-87
2020/12/27 11:23:54;;;;;;;9.97;4.87;;;;;;;4.08;63.43;97907.42;120032;1143;65104;-91
2020/12/27 11:26:20;;;;;;;10.45;4.80;;;;;;;4.09;63.54;97889.77;120019;1143;65155;-91
2020/12/27 11:28:47;;;;;;;11.20;5.43;;;;;;;4.13;63.09;97886.81;119979;1143;65004;-88
2020/12/27 11:31:16;;;;;;;9.23;4.40;;;;;;;4.13;63.67;97865.67;120141;1143;65245;-90
2020/12/27 11:33:43;;;;;;;8.67;4.20;;;;;;;4.15;63.66;97853.23;120441;1143;65456;-89
2020/12/27 11:36:10;;;;;;;10.73;4.50;;;;;;;4.15;63.45;97841.81;120255;1144;65086;-89
2020/12/27 11:38:37;;;;;;;13.27;5.60;;;;;;;4.16;63.46;97835.58;119975;1143;65175;-91
2020/12/27 11:41:03;;;;;;;12.87;5.53;;;;;;;4.16;63.96;97827.66;120002;1144;65092;-90
2020/12/27 11:43:30;;;;;;;10.67;5.10;;;;;;;4.11;63.39;97822.66;120385;1143;65244;-91
2020/12/27 11:45:58;;;;;;;8.80;4.13;;;;;;;4.08;63.18;97806.18;120092;1143;65172;-88
2020/12/27 11:48:26;;;;;;;8.93;4.17;;;;;;;4.01;63.31;97806.58;120175;1142;65124;-89